sensor_id;sensor_type;location;lat;lon;timestamp;temperature;humidity
11423;DHT22;5768;51.476;7.210;2022-12-29T00:00:40;11.50;86.70
11423;DHT22;5768;51.476;7.210;2022-12-29T00:05:42;11.50;84.10
11423;DHT22;5768;51.476;7.210;2022-12-29T00:10:45;11.70;83.30
11423;DHT22;5768;51.476;7.210;2022-12-29T00:15:48;11.70;82.50
11423;DHT22;5768;51.476;7.210;2022-12-29T00:20:54;11.60;82.60
11423;DHT22;5768;51.476;7.210;2022-12-29T00:26:15;11.70;85.00
11423;DHT22;5768;51.476;7.210;2022-12-29T00:31:37;11.60;88.00
11423;DHT22;5768;51.476;7.210;2022-12-29T00:36:57;11.60;88.40
11423;DHT22;5768;51.476;7.210;2022-12-29T00:42:03;11.50;92.00
11423;DHT22;5768;51.476;7.210;2022-12-29T00:47:27;11.50;92.00
11423;DHT22;5768;51.476;7.210;2022-12-29T00:52:29;11.40;92.50
11423;DHT22;5768;51.476;7.210;2022-12-29T00:57:31;11.50;92.00
11423;DHT22;5768;51.476;7.210;2022-12-29T01:02:35;11.50;92.90
11423;DHT22;5768;51.476;7.210;2022-12-29T01:07:37;11.60;92.60
11423;DHT22;5768;51.476;7.210;2022-12-29T01:12:39;11.40;99.90
11423;DHT22;5768;51.476;7.210;2022-12-29T01:17:46;11.30;99.90
11423;DHT22;5768;51.476;7.210;2022-12-29T01:22:48;11.40;98.80
11423;DHT22;5768;51.476;7.210;2022-12-29T01:27:50;11.50;95.40
11423;DHT22;5768;51.476;7.210;2022-12-29T01:32:54;11.50;92.20
11423;DHT22;5768;51.476;7.210;2022-12-29T01:37:56;11.60;90.80
11423;DHT22;5768;51.476;7.210;2022-12-29T01:42:58;11.70;87.90
11423;DHT22;5768;51.476;7.210;2022-12-29T01:48:04;11.70;85.90
11423;DHT22;5768;51.476;7.210;2022-12-29T01:53:15;11.80;86.60
11423;DHT22;5768;51.476;7.210;2022-12-29T01:58:23;11.70;85.50
11423;DHT22;5768;51.476;7.210;2022-12-29T02:03:31;11.80;84.80
11423;DHT22;5768;51.476;7.210;2022-12-29T02:08:35;11.90;84.20
11423;DHT22;5768;51.476;7.210;2022-12-29T02:13:39;11.90;83.90
11423;DHT22;5768;51.476;7.210;2022-12-29T02:18:51;11.90;83.20
11423;DHT22;5768;51.476;7.210;2022-12-29T02:24:30;11.80;82.60
11423;DHT22;5768;51.476;7.210;2022-12-29T02:30:12;11.80;82.50
11423;DHT22;5768;51.476;7.210;2022-12-29T02:35:28;11.80;81.40
11423;DHT22;5768;51.476;7.210;2022-12-29T02:40:39;11.90;35.50
11423;DHT22;5768;51.476;7.210;2022-12-29T02:45:48;11.90;28.60
11423;DHT22;5768;51.476;7.210;2022-12-29T02:51:01;12.00;28.20
11423;DHT22;5768;51.476;7.210;2022-12-29T02:56:05;12.10;26.90
11423;DHT22;5768;51.476;7.210;2022-12-29T03:01:20;12.00;26.20
11423;DHT22;5768;51.476;7.210;2022-12-29T03:06:37;12.00;24.80
11423;DHT22;5768;51.476;7.210;2022-12-29T03:11:58;12.00;24.70
11423;DHT22;5768;51.476;7.210;2022-12-29T03:17:17;12.20;23.70
11423;DHT22;5768;51.476;7.210;2022-12-29T03:22:29;12.30;25.50
11423;DHT22;5768;51.476;7.210;2022-12-29T03:27:38;12.20;24.20
11423;DHT22;5768;51.476;7.210;2022-12-29T03:32:46;12.20;23.40
11423;DHT22;5768;51.476;7.210;2022-12-29T03:37:57;12.30;23.20
11423;DHT22;5768;51.476;7.210;2022-12-29T03:43:04;12.40;23.10
11423;DHT22;5768;51.476;7.210;2022-12-29T03:48:07;12.40;23.30
11423;DHT22;5768;51.476;7.210;2022-12-29T03:53:10;12.30;24.10
11423;DHT22;5768;51.476;7.210;2022-12-29T03:58:12;12.00;28.90
11423;DHT22;5768;51.476;7.210;2022-12-29T04:03:14;11.70;38.40
11423;DHT22;5768;51.476;7.210;2022-12-29T04:08:18;11.80;84.00
11423;DHT22;5768;51.476;7.210;2022-12-29T04:13:20;11.80;83.30
11423;DHT22;5768;51.476;7.210;2022-12-29T04:18:22;11.90;29.80
11423;DHT22;5768;51.476;7.210;2022-12-29T04:23:25;12.10;28.90
11423;DHT22;5768;51.476;7.210;2022-12-29T04:28:29;12.10;28.50
11423;DHT22;5768;51.476;7.210;2022-12-29T04:33:31;12.20;26.70
11423;DHT22;5768;51.476;7.210;2022-12-29T04:38:36;12.30;26.10
11423;DHT22;5768;51.476;7.210;2022-12-29T04:43:38;12.10;25.60
11423;DHT22;5768;51.476;7.210;2022-12-29T04:48:40;12.10;25.20
11423;DHT22;5768;51.476;7.210;2022-12-29T04:53:44;12.10;24.90
11423;DHT22;5768;51.476;7.210;2022-12-29T04:58:46;12.20;24.60
11423;DHT22;5768;51.476;7.210;2022-12-29T05:03:49;12.20;24.00
11423;DHT22;5768;51.476;7.210;2022-12-29T05:08:54;12.30;23.50
11423;DHT22;5768;51.476;7.210;2022-12-29T05:13:56;12.50;22.80
11423;DHT22;5768;51.476;7.210;2022-12-29T05:18:58;12.50;22.40
11423;DHT22;5768;51.476;7.210;2022-12-29T05:24:01;12.60;22.20
11423;DHT22;5768;51.476;7.210;2022-12-29T05:29:03;12.60;21.60
11423;DHT22;5768;51.476;7.210;2022-12-29T05:34:06;12.60;21.70
11423;DHT22;5768;51.476;7.210;2022-12-29T05:39:09;12.50;21.30
11423;DHT22;5768;51.476;7.210;2022-12-29T05:44:12;12.30;21.00
11423;DHT22;5768;51.476;7.210;2022-12-29T05:49:14;12.50;20.90
11423;DHT22;5768;51.476;7.210;2022-12-29T05:54:18;12.10;25.50
11423;DHT22;5768;51.476;7.210;2022-12-29T05:59:20;11.80;26.60
11423;DHT22;5768;51.476;7.210;2022-12-29T06:04:22;12.00;25.70
11423;DHT22;5768;51.476;7.210;2022-12-29T06:09:26;12.10;24.60
11423;DHT22;5768;51.476;7.210;2022-12-29T06:14:28;12.10;23.90
11423;DHT22;5768;51.476;7.210;2022-12-29T06:19:30;12.10;23.60
11423;DHT22;5768;51.476;7.210;2022-12-29T06:24:33;12.10;22.80
11423;DHT22;5768;51.476;7.210;2022-12-29T06:29:35;12.20;22.50
11423;DHT22;5768;51.476;7.210;2022-12-29T06:34:40;12.30;22.00
11423;DHT22;5768;51.476;7.210;2022-12-29T06:39:44;12.30;21.60
11423;DHT22;5768;51.476;7.210;2022-12-29T06:44:46;12.20;21.50
11423;DHT22;5768;51.476;7.210;2022-12-29T06:49:48;12.20;21.30
11423;DHT22;5768;51.476;7.210;2022-12-29T06:54:52;12.20;21.20
11423;DHT22;5768;51.476;7.210;2022-12-29T06:59:54;12.20;20.50
11423;DHT22;5768;51.476;7.210;2022-12-29T07:04:57;12.30;20.40
11423;DHT22;5768;51.476;7.210;2022-12-29T07:10:00;12.30;20.40
11423;DHT22;5768;51.476;7.210;2022-12-29T07:15:02;12.30;20.10
11423;DHT22;5768;51.476;7.210;2022-12-29T07:20:06;12.20;20.10
11423;DHT22;5768;51.476;7.210;2022-12-29T07:25:11;12.20;20.30
11423;DHT22;5768;51.476;7.210;2022-12-29T07:30:13;12.20;20.60
11423;DHT22;5768;51.476;7.210;2022-12-29T07:35:15;12.10;20.50
11423;DHT22;5768;51.476;7.210;2022-12-29T07:40:18;12.20;20.60
11423;DHT22;5768;51.476;7.210;2022-12-29T07:45:20;12.10;20.20
11423;DHT22;5768;51.476;7.210;2022-12-29T07:50:22;12.00;19.90
11423;DHT22;5768;51.476;7.210;2022-12-29T07:55:26;12.20;19.50
11423;DHT22;5768;51.476;7.210;2022-12-29T08:00:28;12.00;18.80
11423;DHT22;5768;51.476;7.210;2022-12-29T08:05:31;12.00;18.70
11423;DHT22;5768;51.476;7.210;2022-12-29T08:10:35;12.00;18.70
11423;DHT22;5768;51.476;7.210;2022-12-29T08:15:38;12.00;18.00
11423;DHT22;5768;51.476;7.210;2022-12-29T08:20:40;12.00;18.50
11423;DHT22;5768;51.476;7.210;2022-12-29T08:25:43;12.00;18.30
11423;DHT22;5768;51.476;7.210;2022-12-29T08:30:45;12.10;18.40
11423;DHT22;5768;51.476;7.210;2022-12-29T08:35:47;12.10;18.50
11423;DHT22;5768;51.476;7.210;2022-12-29T08:40:52;12.10;18.30
11423;DHT22;5768;51.476;7.210;2022-12-29T08:45:54;12.10;18.20
11423;DHT22;5768;51.476;7.210;2022-12-29T08:50:57;12.00;18.20
11423;DHT22;5768;51.476;7.210;2022-12-29T08:56:01;12.00;18.50
11423;DHT22;5768;51.476;7.210;2022-12-29T09:01:03;12.10;18.10
11423;DHT22;5768;51.476;7.210;2022-12-29T09:06:06;11.90;18.50
11423;DHT22;5768;51.476;7.210;2022-12-29T09:11:11;11.90;18.60
11423;DHT22;5768;51.476;7.210;2022-12-29T09:16:16;11.70;19.40
11423;DHT22;5768;51.476;7.210;2022-12-29T09:21:19;11.60;19.20
11423;DHT22;5768;51.476;7.210;2022-12-29T09:26:22;11.60;19.10
11423;DHT22;5768;51.476;7.210;2022-12-29T09:31:24;11.60;19.30
11423;DHT22;5768;51.476;7.210;2022-12-29T09:36:26;11.80;18.90
11423;DHT22;5768;51.476;7.210;2022-12-29T09:41:35;11.90;18.60
11423;DHT22;5768;51.476;7.210;2022-12-29T09:46:43;11.80;18.60
11423;DHT22;5768;51.476;7.210;2022-12-29T09:51:53;11.90;18.40
11423;DHT22;5768;51.476;7.210;2022-12-29T09:56:58;12.00;18.30
11423;DHT22;5768;51.476;7.210;2022-12-29T10:02:08;12.20;18.20
11423;DHT22;5768;51.476;7.210;2022-12-29T10:07:32;12.10;18.10
11423;DHT22;5768;51.476;7.210;2022-12-29T10:12:55;12.20;17.90
11423;DHT22;5768;51.476;7.210;2022-12-29T10:18:14;12.20;18.00
11423;DHT22;5768;51.476;7.210;2022-12-29T10:23:40;12.10;17.60
11423;DHT22;5768;51.476;7.210;2022-12-29T10:28:49;12.20;17.10
11423;DHT22;5768;51.476;7.210;2022-12-29T10:33:57;12.20;17.10
11423;DHT22;5768;51.476;7.210;2022-12-29T10:39:10;12.40;16.80
11423;DHT22;5768;51.476;7.210;2022-12-29T10:44:20;12.40;16.50
11423;DHT22;5768;51.476;7.210;2022-12-29T10:49:25;12.40;16.50
11423;DHT22;5768;51.476;7.210;2022-12-29T10:54:32;12.50;16.20
11423;DHT22;5768;51.476;7.210;2022-12-29T10:59:42;12.40;16.30
11423;DHT22;5768;51.476;7.210;2022-12-29T11:04:52;12.20;16.20
11423;DHT22;5768;51.476;7.210;2022-12-29T11:10:15;12.10;16.30
11423;DHT22;5768;51.476;7.210;2022-12-29T11:15:20;12.20;16.50
11423;DHT22;5768;51.476;7.210;2022-12-29T11:20:29;12.10;16.40
11423;DHT22;5768;51.476;7.210;2022-12-29T11:25:34;12.30;16.40
11423;DHT22;5768;51.476;7.210;2022-12-29T11:30:37;12.10;16.40
11423;DHT22;5768;51.476;7.210;2022-12-29T11:35:41;12.00;16.50
11423;DHT22;5768;51.476;7.210;2022-12-29T11:40:44;12.00;16.40
11423;DHT22;5768;51.476;7.210;2022-12-29T11:45:48;12.00;16.50
11423;DHT22;5768;51.476;7.210;2022-12-29T11:50:52;12.10;16.50
11423;DHT22;5768;51.476;7.210;2022-12-29T11:55:58;12.20;16.40
11423;DHT22;5768;51.476;7.210;2022-12-29T12:01:06;12.10;16.30
11423;DHT22;5768;51.476;7.210;2022-12-29T12:06:15;12.40;16.20
11423;DHT22;5768;51.476;7.210;2022-12-29T12:11:25;12.40;16.10
11423;DHT22;5768;51.476;7.210;2022-12-29T12:16:40;12.10;16.20
11423;DHT22;5768;51.476;7.210;2022-12-29T12:21:47;12.40;16.20
11423;DHT22;5768;51.476;7.210;2022-12-29T12:26:58;12.30;16.10
11423;DHT22;5768;51.476;7.210;2022-12-29T12:32:11;12.10;16.10
11423;DHT22;5768;51.476;7.210;2022-12-29T12:37:33;12.10;16.20
11423;DHT22;5768;51.476;7.210;2022-12-29T12:43:01;12.10;16.30
11423;DHT22;5768;51.476;7.210;2022-12-29T12:48:40;11.90;16.20
11423;DHT22;5768;51.476;7.210;2022-12-29T12:54:05;11.90;16.30
11423;DHT22;5768;51.476;7.210;2022-12-29T12:59:33;11.90;16.30
11423;DHT22;5768;51.476;7.210;2022-12-29T13:04:57;12.10;16.30
11423;DHT22;5768;51.476;7.210;2022-12-29T13:10:31;12.10;16.20
11423;DHT22;5768;51.476;7.210;2022-12-29T13:15:48;11.90;16.40
11423;DHT22;5768;51.476;7.210;2022-12-29T13:21:07;12.00;16.40
11423;DHT22;5768;51.476;7.210;2022-12-29T13:26:18;12.00;16.40
11423;DHT22;5768;51.476;7.210;2022-12-29T13:31:29;12.00;16.40
11423;DHT22;5768;51.476;7.210;2022-12-29T13:36:39;12.00;16.40
11423;DHT22;5768;51.476;7.210;2022-12-29T13:41:48;12.00;16.40
11423;DHT22;5768;51.476;7.210;2022-12-29T13:46:54;11.70;16.60
11423;DHT22;5768;51.476;7.210;2022-12-29T13:52:10;11.50;17.00
11423;DHT22;5768;51.476;7.210;2022-12-29T13:57:30;11.60;17.20
11423;DHT22;5768;51.476;7.210;2022-12-29T14:02:53;11.60;17.20
11423;DHT22;5768;51.476;7.210;2022-12-29T14:08:16;11.50;17.20
11423;DHT22;5768;51.476;7.210;2022-12-29T14:13:21;11.60;17.10
11423;DHT22;5768;51.476;7.210;2022-12-29T14:18:26;11.50;17.10
11423;DHT22;5768;51.476;7.210;2022-12-29T14:23:39;11.70;17.10
11423;DHT22;5768;51.476;7.210;2022-12-29T14:28:44;11.80;17.10
11423;DHT22;5768;51.476;7.210;2022-12-29T14:39:45;11.60;16.80
11423;DHT22;5768;51.476;7.210;2022-12-29T14:44:49;11.60;16.80
11423;DHT22;5768;51.476;7.210;2022-12-29T14:49:54;11.40;16.60
11423;DHT22;5768;51.476;7.210;2022-12-29T14:54:59;11.50;16.60
11423;DHT22;5768;51.476;7.210;2022-12-29T15:00:43;11.50;16.50
11423;DHT22;5768;51.476;7.210;2022-12-29T15:05:53;11.50;16.60
11423;DHT22;5768;51.476;7.210;2022-12-29T15:11:01;11.60;16.50
11423;DHT22;5768;51.476;7.210;2022-12-29T15:16:22;11.40;16.60
11423;DHT22;5768;51.476;7.210;2022-12-29T15:21:26;11.50;16.80
11423;DHT22;5768;51.476;7.210;2022-12-29T15:26:39;11.50;16.70
11423;DHT22;5768;51.476;7.210;2022-12-29T15:31:46;11.50;16.60
11423;DHT22;5768;51.476;7.210;2022-12-29T15:36:50;11.20;16.60
11423;DHT22;5768;51.476;7.210;2022-12-29T15:41:56;11.30;16.70
11423;DHT22;5768;51.476;7.210;2022-12-29T15:47:08;11.50;16.60
11423;DHT22;5768;51.476;7.210;2022-12-29T15:52:17;11.30;16.70
11423;DHT22;5768;51.476;7.210;2022-12-29T15:57:24;11.20;16.80
11423;DHT22;5768;51.476;7.210;2022-12-29T16:02:29;11.20;16.80
11423;DHT22;5768;51.476;7.210;2022-12-29T16:07:32;11.20;16.80
11423;DHT22;5768;51.476;7.210;2022-12-29T16:12:37;11.20;16.70
11423;DHT22;5768;51.476;7.210;2022-12-29T16:17:46;11.30;16.60
11423;DHT22;5768;51.476;7.210;2022-12-29T16:22:53;11.20;16.60
11423;DHT22;5768;51.476;7.210;2022-12-29T16:27:59;11.00;16.70
11423;DHT22;5768;51.476;7.210;2022-12-29T16:33:04;10.70;16.90
11423;DHT22;5768;51.476;7.210;2022-12-29T16:38:13;10.80;17.00
11423;DHT22;5768;51.476;7.210;2022-12-29T16:43:23;10.80;17.00
11423;DHT22;5768;51.476;7.210;2022-12-29T16:48:27;10.70;17.30
11423;DHT22;5768;51.476;7.210;2022-12-29T16:53:34;10.70;17.40
11423;DHT22;5768;51.476;7.210;2022-12-29T16:58:40;10.70;17.40
11423;DHT22;5768;51.476;7.210;2022-12-29T17:03:46;10.70;17.30
11423;DHT22;5768;51.476;7.210;2022-12-29T17:08:52;10.80;17.10
11423;DHT22;5768;51.476;7.210;2022-12-29T17:13:56;10.80;16.90
11423;DHT22;5768;51.476;7.210;2022-12-29T17:18:58;10.90;16.70
11423;DHT22;5768;51.476;7.210;2022-12-29T17:24:00;10.90;16.60
11423;DHT22;5768;51.476;7.210;2022-12-29T17:29:04;10.80;16.60
11423;DHT22;5768;51.476;7.210;2022-12-29T17:34:07;10.80;16.60
11423;DHT22;5768;51.476;7.210;2022-12-29T17:39:12;10.70;16.70
11423;DHT22;5768;51.476;7.210;2022-12-29T17:44:18;10.40;17.20
11423;DHT22;5768;51.476;7.210;2022-12-29T17:49:21;9.80;18.80
11423;DHT22;5768;51.476;7.210;2022-12-29T17:54:24;9.60;19.50
11423;DHT22;5768;51.476;7.210;2022-12-29T17:59:28;9.60;21.40
11423;DHT22;5768;51.476;7.210;2022-12-29T18:04:30;9.50;22.90
11423;DHT22;5768;51.476;7.210;2022-12-29T18:09:32;9.00;27.50
11423;DHT22;5768;51.476;7.210;2022-12-29T18:14:36;8.70;29.30
11423;DHT22;5768;51.476;7.210;2022-12-29T18:19:38;8.40;91.20
11423;DHT22;5768;51.476;7.210;2022-12-29T18:24:40;8.30;89.50
11423;DHT22;5768;51.476;7.210;2022-12-29T18:29:45;8.10;88.90
11423;DHT22;5768;51.476;7.210;2022-12-29T18:34:47;7.90;89.70
11423;DHT22;5768;51.476;7.210;2022-12-29T18:39:49;7.90;89.40
11423;DHT22;5768;51.476;7.210;2022-12-29T18:44:53;8.00;87.70
11423;DHT22;5768;51.476;7.210;2022-12-29T18:49:55;8.10;86.20
11423;DHT22;5768;51.476;7.210;2022-12-29T18:54:57;8.10;85.40
11423;DHT22;5768;51.476;7.210;2022-12-29T19:00:00;8.20;83.90
11423;DHT22;5768;51.476;7.210;2022-12-29T19:05:05;8.20;38.30
11423;DHT22;5768;51.476;7.210;2022-12-29T19:10:20;8.20;31.00
11423;DHT22;5768;51.476;7.210;2022-12-29T19:15:27;8.20;28.40
11423;DHT22;5768;51.476;7.210;2022-12-29T19:20:32;8.30;26.90
11423;DHT22;5768;51.476;7.210;2022-12-29T19:25:37;8.40;26.20
11423;DHT22;5768;51.476;7.210;2022-12-29T19:30:41;8.40;25.40
11423;DHT22;5768;51.476;7.210;2022-12-29T19:35:43;8.50;24.20
11423;DHT22;5768;51.476;7.210;2022-12-29T19:40:47;8.50;23.80
11423;DHT22;5768;51.476;7.210;2022-12-29T19:45:52;8.60;22.60
11423;DHT22;5768;51.476;7.210;2022-12-29T19:51:02;8.60;22.30
11423;DHT22;5768;51.476;7.210;2022-12-29T19:56:08;8.50;22.00
11423;DHT22;5768;51.476;7.210;2022-12-29T20:01:13;8.70;21.80
11423;DHT22;5768;51.476;7.210;2022-12-29T20:06:17;8.70;21.80
11423;DHT22;5768;51.476;7.210;2022-12-29T20:11:20;8.70;22.10
11423;DHT22;5768;51.476;7.210;2022-12-29T20:16:23;8.60;21.80
11423;DHT22;5768;51.476;7.210;2022-12-29T20:21:25;8.50;22.00
11423;DHT22;5768;51.476;7.210;2022-12-29T20:26:28;8.50;22.10
11423;DHT22;5768;51.476;7.210;2022-12-29T20:31:33;8.50;22.10
11423;DHT22;5768;51.476;7.210;2022-12-29T20:36:39;8.50;22.10
11423;DHT22;5768;51.476;7.210;2022-12-29T20:41:42;8.50;22.20
11423;DHT22;5768;51.476;7.210;2022-12-29T20:46:47;8.50;22.10
11423;DHT22;5768;51.476;7.210;2022-12-29T20:51:50;8.50;22.00
11423;DHT22;5768;51.476;7.210;2022-12-29T20:56:52;8.50;22.10
11423;DHT22;5768;51.476;7.210;2022-12-29T21:01:56;8.50;22.00
11423;DHT22;5768;51.476;7.210;2022-12-29T21:06:58;8.60;22.20
11423;DHT22;5768;51.476;7.210;2022-12-29T21:12:00;8.40;22.10
11423;DHT22;5768;51.476;7.210;2022-12-29T21:17:07;8.40;21.90
11423;DHT22;5768;51.476;7.210;2022-12-29T21:22:09;8.30;22.10
11423;DHT22;5768;51.476;7.210;2022-12-29T21:27:12;8.30;21.80
11423;DHT22;5768;51.476;7.210;2022-12-29T21:32:15;8.20;22.00
11423;DHT22;5768;51.476;7.210;2022-12-29T21:37:17;8.30;22.10
11423;DHT22;5768;51.476;7.210;2022-12-29T21:42:19;8.20;22.30
11423;DHT22;5768;51.476;7.210;2022-12-29T21:47:23;8.20;22.30
11423;DHT22;5768;51.476;7.210;2022-12-29T21:52:46;8.10;22.50
11423;DHT22;5768;51.476;7.210;2022-12-29T21:57:48;8.10;22.60
11423;DHT22;5768;51.476;7.210;2022-12-29T22:03:17;8.10;22.70
11423;DHT22;5768;51.476;7.210;2022-12-29T22:08:37;8.10;22.60
11423;DHT22;5768;51.476;7.210;2022-12-29T22:13:58;8.10;22.70
11423;DHT22;5768;51.476;7.210;2022-12-29T22:19:02;8.10;22.60
11423;DHT22;5768;51.476;7.210;2022-12-29T22:24:13;8.10;22.80
11423;DHT22;5768;51.476;7.210;2022-12-29T22:29:15;8.00;22.60
11423;DHT22;5768;51.476;7.210;2022-12-29T22:34:19;8.00;22.90
11423;DHT22;5768;51.476;7.210;2022-12-29T22:39:21;8.10;22.50
11423;DHT22;5768;51.476;7.210;2022-12-29T22:44:23;8.00;22.40
11423;DHT22;5768;51.476;7.210;2022-12-29T22:49:26;8.00;22.60
11423;DHT22;5768;51.476;7.210;2022-12-29T22:54:30;8.00;22.50
11423;DHT22;5768;51.476;7.210;2022-12-29T22:59:33;8.00;22.40
11423;DHT22;5768;51.476;7.210;2022-12-29T23:04:36;8.00;22.30
11423;DHT22;5768;51.476;7.210;2022-12-29T23:09:38;7.90;22.50
11423;DHT22;5768;51.476;7.210;2022-12-29T23:14:41;7.80;22.60
11423;DHT22;5768;51.476;7.210;2022-12-29T23:19:44;7.90;22.60
11423;DHT22;5768;51.476;7.210;2022-12-29T23:24:47;7.80;22.50
11423;DHT22;5768;51.476;7.210;2022-12-29T23:29:49;7.90;22.40
11423;DHT22;5768;51.476;7.210;2022-12-29T23:34:52;7.80;22.40
11423;DHT22;5768;51.476;7.210;2022-12-29T23:39:55;7.80;22.40
11423;DHT22;5768;51.476;7.210;2022-12-29T23:44:57;7.80;22.70
11423;DHT22;5768;51.476;7.210;2022-12-29T23:50:00;7.70;22.70
11423;DHT22;5768;51.476;7.210;2022-12-29T23:55:03;7.80;22.70
